Okara Weather



Okara's Current Weather

Temprature 40.34o broken clouds

broken clouds

Rain: 0 %

Min Temprature40.34o
Max Temprature40.34o
Humidity32
Wind Speed3.3 m/h
Sun Rise05:18:34
Sun Set19:06:33
Current Time: 24-Jul-2021 14:51:07
Lat/Lon: 30.8081, 73.4458




Okara's Geo Location



Okara's Weather Forecast

Time Overall Temp Min Temp Max Temp Humidity Wind Speed Rain
24-Jul-2021 (Sat)
17:00:00 broken clouds 39.960 39.960 40.290 31 3.59 m/h 0 %
20:00:00 broken clouds 38.210 37.410 38.210 37 3.18 m/h 0 %
23:00:00 scattered clouds 35.810 35.810 35.810 44 2.77 m/h 0 %
25-Jul-2021 (Sun)
02:00:00 few clouds 34.620 34.620 34.620 48 2.31 m/h 0 %
05:00:00 scattered clouds 33.840 33.840 33.840 50 2.44 m/h 0 %
08:00:00 scattered clouds 37.550 37.550 37.550 40 2.65 m/h 0 %
11:00:00 scattered clouds 41.650 41.650 41.650 30 2 m/h 0 %
14:00:00 scattered clouds 43.790 43.790 43.790 25 3.83 m/h 0 %
17:00:00 broken clouds 41.740 41.740 41.740 28 3.94 m/h 0 %
20:00:00 broken clouds 39.360 39.360 39.360 33 4.56 m/h 0 %
23:00:00 overcast clouds 36.280 36.280 36.280 47 5.84 m/h 0 %
26-Jul-2021 (Mon)
02:00:00 overcast clouds 34.880 34.880 34.880 51 5.43 m/h 0 %
05:00:00 overcast clouds 35.090 35.090 35.090 49 3.72 m/h 0 %
08:00:00 overcast clouds 37.530 37.530 37.530 39 4.1 m/h 0 %
11:00:00 overcast clouds 41.530 41.530 41.530 30 3.97 m/h 0 %
14:00:00 overcast clouds 43.190 43.190 43.190 27 5.04 m/h 0 %
17:00:00 overcast clouds 40.700 40.700 40.700 33 5.25 m/h 0 %
20:00:00 overcast clouds 37.130 37.130 37.130 40 6.02 m/h 0 %
23:00:00 overcast clouds 36.160 36.160 36.160 42 4.94 m/h 0 %
27-Jul-2021 (Tue)
02:00:00 overcast clouds 35.010 35.010 35.010 44 6.55 m/h 0 %
05:00:00 overcast clouds 31.910 31.910 31.910 57 6.3 m/h 0 %
08:00:00 overcast clouds 32.810 32.810 32.810 55 6.34 m/h 0 %
11:00:00 broken clouds 36.650 36.650 36.650 42 5.77 m/h 0 %
14:00:00 scattered clouds 39.140 39.140 39.140 35 6.58 m/h 0 %
17:00:00 broken clouds 38.890 38.890 38.890 36 5.27 m/h 0 %
20:00:00 overcast clouds 34.870 34.870 34.870 46 7.32 m/h 0 %
23:00:00 overcast clouds 32.740 32.740 32.740 54 6.43 m/h 0 %
28-Jul-2021 (Wed)
02:00:00 overcast clouds 30.640 30.640 30.640 63 5.54 m/h 0 %
05:00:00 overcast clouds 30.050 30.050 30.050 64 4.61 m/h 0 %
08:00:00 overcast clouds 30.030 30.030 30.030 68 4.82 m/h 0 %
11:00:00 light rain 30.260 30.260 30.260 68 4.24 m/h 13 %
14:00:00 overcast clouds 31.620 31.620 31.620 63 5.47 m/h 0 %
17:00:00 overcast clouds 31.840 31.840 31.840 62 5.1 m/h 0 %
20:00:00 overcast clouds 29.060 29.060 29.060 72 4.63 m/h 0 %
23:00:00 overcast clouds 28.270 28.270 28.270 78 3.31 m/h 0 %
29-Jul-2021 (Thu)
02:00:00 light rain 28.150 28.150 28.150 79 2.83 m/h 11 %
05:00:00 overcast clouds 28.230 28.230 28.230 78 2.58 m/h 0 %
08:00:00 scattered clouds 31.090 31.090 31.090 65 3.07 m/h 0 %
11:00:00 scattered clouds 36.350 36.350 36.350 46 1.79 m/h 0 %
14:00:00 light rain 36.530 36.530 36.530 44 1.53 m/h 66 %

Famous Cities (60)